sensor_id;sensor_type;location;lat;lon;timestamp;P1;durP1;ratioP1;P2;durP2;ratioP2
17570;SDS011;8903;52.220;20.978;2023-07-30T00:00:58;18.00;;;14.13;;
17570;SDS011;8903;52.220;20.978;2023-07-30T00:03:25;24.90;;;19.20;;
17570;SDS011;8903;52.220;20.978;2023-07-30T00:05:53;25.93;;;19.20;;
17570;SDS011;8903;52.220;20.978;2023-07-30T00:08:21;15.53;;;12.20;;
17570;SDS011;8903;52.220;20.978;2023-07-30T00:10:49;20.20;;;15.13;;
17570;SDS011;8903;52.220;20.978;2023-07-30T00:13:16;18.93;;;15.20;;
17570;SDS011;8903;52.220;20.978;2023-07-30T00:15:45;19.00;;;14.63;;
17570;SDS011;8903;52.220;20.978;2023-07-30T00:18:12;22.57;;;17.20;;
17570;SDS011;8903;52.220;20.978;2023-07-30T00:20:39;19.87;;;15.90;;
17570;SDS011;8903;52.220;20.978;2023-07-30T00:23:06;19.83;;;16.23;;
17570;SDS011;8903;52.220;20.978;2023-07-30T00:25:35;27.27;;;21.00;;
17570;SDS011;8903;52.220;20.978;2023-07-30T00:28:02;28.37;;;19.03;;
17570;SDS011;8903;52.220;20.978;2023-07-30T00:30:29;16.47;;;14.67;;
17570;SDS011;8903;52.220;20.978;2023-07-30T00:32:56;30.17;;;23.20;;
17570;SDS011;8903;52.220;20.978;2023-07-30T00:35:23;28.97;;;20.63;;
17570;SDS011;8903;52.220;20.978;2023-07-30T00:37:50;19.93;;;15.17;;
17570;SDS011;8903;52.220;20.978;2023-07-30T00:40:17;30.60;;;21.10;;
17570;SDS011;8903;52.220;20.978;2023-07-30T00:42:46;16.37;;;14.77;;
17570;SDS011;8903;52.220;20.978;2023-07-30T00:45:13;17.83;;;14.60;;
17570;SDS011;8903;52.220;20.978;2023-07-30T00:47:40;15.80;;;13.13;;
17570;SDS011;8903;52.220;20.978;2023-07-30T00:50:07;17.67;;;14.40;;
17570;SDS011;8903;52.220;20.978;2023-07-30T00:52:37;18.73;;;13.17;;
17570;SDS011;8903;52.220;20.978;2023-07-30T00:55:04;17.73;;;12.40;;
17570;SDS011;8903;52.220;20.978;2023-07-30T00:57:34;16.10;;;11.07;;
17570;SDS011;8903;52.220;20.978;2023-07-30T01:00:04;16.33;;;12.10;;
17570;SDS011;8903;52.220;20.978;2023-07-30T01:02:34;14.30;;;12.80;;
17570;SDS011;8903;52.220;20.978;2023-07-30T01:05:02;11.10;;;9.73;;
17570;SDS011;8903;52.220;20.978;2023-07-30T01:07:29;10.87;;;9.87;;
17570;SDS011;8903;52.220;20.978;2023-07-30T01:09:56;12.87;;;11.47;;
17570;SDS011;8903;52.220;20.978;2023-07-30T01:12:24;10.13;;;9.03;;
17570;SDS011;8903;52.220;20.978;2023-07-30T01:14:51;12.90;;;10.50;;
17570;SDS011;8903;52.220;20.978;2023-07-30T01:17:22;11.17;;;9.90;;
17570;SDS011;8903;52.220;20.978;2023-07-30T01:19:52;13.37;;;11.53;;
17570;SDS011;8903;52.220;20.978;2023-07-30T01:22:22;13.33;;;10.57;;
17570;SDS011;8903;52.220;20.978;2023-07-30T01:24:49;10.40;;;9.30;;
17570;SDS011;8903;52.220;20.978;2023-07-30T01:27:19;16.83;;;13.10;;
17570;SDS011;8903;52.220;20.978;2023-07-30T01:29:51;10.33;;;7.80;;
17570;SDS011;8903;52.220;20.978;2023-07-30T01:32:23;14.33;;;11.70;;
17570;SDS011;8903;52.220;20.978;2023-07-30T01:34:53;15.80;;;12.17;;
17570;SDS011;8903;52.220;20.978;2023-07-30T01:37:23;11.23;;;10.13;;
17570;SDS011;8903;52.220;20.978;2023-07-30T01:39:51;13.30;;;11.53;;
17570;SDS011;8903;52.220;20.978;2023-07-30T01:42:19;12.17;;;10.77;;
17570;SDS011;8903;52.220;20.978;2023-07-30T01:44:46;13.47;;;9.70;;
17570;SDS011;8903;52.220;20.978;2023-07-30T01:47:13;8.00;;;7.30;;
17570;SDS011;8903;52.220;20.978;2023-07-30T01:49:40;9.80;;;8.80;;
17570;SDS011;8903;52.220;20.978;2023-07-30T01:52:07;11.03;;;9.50;;
17570;SDS011;8903;52.220;20.978;2023-07-30T01:54:35;18.97;;;11.23;;
17570;SDS011;8903;52.220;20.978;2023-07-30T01:57:02;12.37;;;10.73;;
17570;SDS011;8903;52.220;20.978;2023-07-30T01:59:30;8.80;;;8.00;;
17570;SDS011;8903;52.220;20.978;2023-07-30T02:01:57;13.83;;;10.17;;
17570;SDS011;8903;52.220;20.978;2023-07-30T02:04:24;14.20;;;10.60;;
17570;SDS011;8903;52.220;20.978;2023-07-30T02:06:51;13.93;;;10.73;;
17570;SDS011;8903;52.220;20.978;2023-07-30T02:09:18;12.50;;;10.97;;
17570;SDS011;8903;52.220;20.978;2023-07-30T02:11:47;14.60;;;11.20;;
17570;SDS011;8903;52.220;20.978;2023-07-30T02:14:13;11.20;;;9.07;;
17570;SDS011;8903;52.220;20.978;2023-07-30T02:16:40;12.20;;;10.00;;
17570;SDS011;8903;52.220;20.978;2023-07-30T02:19:07;15.43;;;10.93;;
17570;SDS011;8903;52.220;20.978;2023-07-30T02:21:34;12.53;;;11.20;;
17570;SDS011;8903;52.220;20.978;2023-07-30T02:24:06;12.93;;;10.70;;
17570;SDS011;8903;52.220;20.978;2023-07-30T02:26:35;15.00;;;11.13;;
17570;SDS011;8903;52.220;20.978;2023-07-30T02:29:04;15.30;;;12.90;;
17570;SDS011;8903;52.220;20.978;2023-07-30T02:31:31;14.30;;;11.40;;
17570;SDS011;8903;52.220;20.978;2023-07-30T02:33:58;18.00;;;12.73;;
17570;SDS011;8903;52.220;20.978;2023-07-30T02:36:25;16.93;;;12.90;;
17570;SDS011;8903;52.220;20.978;2023-07-30T02:38:52;13.23;;;11.80;;
17570;SDS011;8903;52.220;20.978;2023-07-30T02:41:19;14.87;;;11.77;;
17570;SDS011;8903;52.220;20.978;2023-07-30T02:43:46;13.20;;;11.80;;
17570;SDS011;8903;52.220;20.978;2023-07-30T02:46:15;19.67;;;14.33;;
17570;SDS011;8903;52.220;20.978;2023-07-30T02:48:41;17.17;;;14.97;;
17570;SDS011;8903;52.220;20.978;2023-07-30T02:51:08;19.77;;;15.20;;
17570;SDS011;8903;52.220;20.978;2023-07-30T02:53:35;19.43;;;15.43;;
17570;SDS011;8903;52.220;20.978;2023-07-30T02:56:02;21.13;;;16.40;;
17570;SDS011;8903;52.220;20.978;2023-07-30T02:58:29;19.77;;;17.67;;
17570;SDS011;8903;52.220;20.978;2023-07-30T03:01:04;21.57;;;17.20;;
17570;SDS011;8903;52.220;20.978;2023-07-30T03:03:33;26.80;;;18.17;;
17570;SDS011;8903;52.220;20.978;2023-07-30T03:06:00;26.60;;;18.53;;
17570;SDS011;8903;52.220;20.978;2023-07-30T03:08:27;19.90;;;16.80;;
17570;SDS011;8903;52.220;20.978;2023-07-30T03:10:54;20.57;;;16.13;;
17570;SDS011;8903;52.220;20.978;2023-07-30T03:13:24;25.40;;;17.70;;
17570;SDS011;8903;52.220;20.978;2023-07-30T03:15:51;21.90;;;15.97;;
17570;SDS011;8903;52.220;20.978;2023-07-30T03:18:18;19.97;;;16.23;;
17570;SDS011;8903;52.220;20.978;2023-07-30T03:20:46;20.87;;;16.77;;
17570;SDS011;8903;52.220;20.978;2023-07-30T03:23:13;19.40;;;16.50;;
17570;SDS011;8903;52.220;20.978;2023-07-30T03:25:40;20.67;;;16.27;;
17570;SDS011;8903;52.220;20.978;2023-07-30T03:28:07;23.80;;;17.17;;
17570;SDS011;8903;52.220;20.978;2023-07-30T03:30:34;23.13;;;17.40;;
17570;SDS011;8903;52.220;20.978;2023-07-30T03:33:01;18.87;;;16.10;;
17570;SDS011;8903;52.220;20.978;2023-07-30T03:35:28;25.67;;;18.03;;
17570;SDS011;8903;52.220;20.978;2023-07-30T03:37:56;22.37;;;17.20;;
17570;SDS011;8903;52.220;20.978;2023-07-30T03:40:23;24.93;;;19.10;;
17570;SDS011;8903;52.220;20.978;2023-07-30T03:42:51;25.10;;;18.07;;
17570;SDS011;8903;52.220;20.978;2023-07-30T03:45:18;25.27;;;18.57;;
17570;SDS011;8903;52.220;20.978;2023-07-30T03:47:45;24.80;;;18.40;;
17570;SDS011;8903;52.220;20.978;2023-07-30T03:50:12;25.00;;;18.63;;
17570;SDS011;8903;52.220;20.978;2023-07-30T03:52:39;25.07;;;18.77;;
17570;SDS011;8903;52.220;20.978;2023-07-30T03:55:08;25.10;;;18.40;;
17570;SDS011;8903;52.220;20.978;2023-07-30T03:57:35;26.17;;;19.53;;
17570;SDS011;8903;52.220;20.978;2023-07-30T04:00:02;27.43;;;17.80;;
17570;SDS011;8903;52.220;20.978;2023-07-30T04:02:39;28.83;;;19.00;;
17570;SDS011;8903;52.220;20.978;2023-07-30T04:05:06;23.30;;;17.87;;
17570;SDS011;8903;52.220;20.978;2023-07-30T04:07:34;25.30;;;18.00;;
17570;SDS011;8903;52.220;20.978;2023-07-30T04:10:01;24.47;;;17.87;;
17570;SDS011;8903;52.220;20.978;2023-07-30T04:12:29;26.23;;;16.87;;
17570;SDS011;8903;52.220;20.978;2023-07-30T04:14:56;24.57;;;18.10;;
17570;SDS011;8903;52.220;20.978;2023-07-30T04:17:25;20.90;;;16.10;;
17570;SDS011;8903;52.220;20.978;2023-07-30T04:19:52;28.00;;;17.67;;
17570;SDS011;8903;52.220;20.978;2023-07-30T04:22:19;20.37;;;17.43;;
17570;SDS011;8903;52.220;20.978;2023-07-30T04:24:46;21.53;;;17.00;;
17570;SDS011;8903;52.220;20.978;2023-07-30T04:27:13;23.73;;;17.20;;
17570;SDS011;8903;52.220;20.978;2023-07-30T04:29:42;17.30;;;15.03;;
17570;SDS011;8903;52.220;20.978;2023-07-30T04:32:09;19.67;;;15.10;;
17570;SDS011;8903;52.220;20.978;2023-07-30T04:34:36;20.77;;;16.57;;
17570;SDS011;8903;52.220;20.978;2023-07-30T04:37:03;21.20;;;15.37;;
17570;SDS011;8903;52.220;20.978;2023-07-30T04:39:31;16.67;;;14.00;;
17570;SDS011;8903;52.220;20.978;2023-07-30T04:41:59;19.00;;;14.50;;
17570;SDS011;8903;52.220;20.978;2023-07-30T04:44:26;19.80;;;14.43;;
17570;SDS011;8903;52.220;20.978;2023-07-30T04:47:00;20.60;;;15.37;;
17570;SDS011;8903;52.220;20.978;2023-07-30T04:49:28;19.73;;;14.10;;
17570;SDS011;8903;52.220;20.978;2023-07-30T04:51:55;16.33;;;12.80;;
17570;SDS011;8903;52.220;20.978;2023-07-30T04:54:22;18.30;;;14.37;;
17570;SDS011;8903;52.220;20.978;2023-07-30T04:56:49;15.87;;;12.60;;
17570;SDS011;8903;52.220;20.978;2023-07-30T04:59:16;12.27;;;11.00;;
17570;SDS011;8903;52.220;20.978;2023-07-30T05:01:43;13.83;;;12.20;;
17570;SDS011;8903;52.220;20.978;2023-07-30T05:04:11;16.00;;;13.67;;
17570;SDS011;8903;52.220;20.978;2023-07-30T05:06:38;14.90;;;13.40;;
17570;SDS011;8903;52.220;20.978;2023-07-30T05:09:05;19.60;;;16.00;;
17570;SDS011;8903;52.220;20.978;2023-07-30T05:11:32;19.53;;;16.00;;
17570;SDS011;8903;52.220;20.978;2023-07-30T05:13:59;18.83;;;15.27;;
17570;SDS011;8903;52.220;20.978;2023-07-30T05:16:26;18.20;;;15.60;;
17570;SDS011;8903;52.220;20.978;2023-07-30T05:18:53;19.03;;;15.90;;
17570;SDS011;8903;52.220;20.978;2023-07-30T05:21:21;21.53;;;16.17;;
17570;SDS011;8903;52.220;20.978;2023-07-30T05:23:48;24.70;;;17.50;;
17570;SDS011;8903;52.220;20.978;2023-07-30T05:26:16;19.40;;;15.93;;
17570;SDS011;8903;52.220;20.978;2023-07-30T05:28:43;18.47;;;16.00;;
17570;SDS011;8903;52.220;20.978;2023-07-30T05:31:11;19.00;;;16.83;;
17570;SDS011;8903;52.220;20.978;2023-07-30T05:33:38;17.87;;;15.47;;
17570;SDS011;8903;52.220;20.978;2023-07-30T05:36:05;24.53;;;16.00;;
17570;SDS011;8903;52.220;20.978;2023-07-30T05:38:34;17.93;;;16.10;;
17570;SDS011;8903;52.220;20.978;2023-07-30T05:41:01;14.77;;;13.23;;
17570;SDS011;8903;52.220;20.978;2023-07-30T05:43:28;14.17;;;12.67;;
17570;SDS011;8903;52.220;20.978;2023-07-30T05:45:55;16.30;;;14.13;;
17570;SDS011;8903;52.220;20.978;2023-07-30T05:48:22;16.63;;;13.67;;
17570;SDS011;8903;52.220;20.978;2023-07-30T05:50:49;13.93;;;11.33;;
17570;SDS011;8903;52.220;20.978;2023-07-30T05:53:16;11.93;;;10.60;;
17570;SDS011;8903;52.220;20.978;2023-07-30T05:55:44;18.87;;;11.90;;
17570;SDS011;8903;52.220;20.978;2023-07-30T05:58:11;11.97;;;10.80;;
17570;SDS011;8903;52.220;20.978;2023-07-30T06:00:38;12.87;;;10.43;;
17570;SDS011;8903;52.220;20.978;2023-07-30T06:03:05;20.17;;;13.27;;
17570;SDS011;8903;52.220;20.978;2023-07-30T06:05:38;15.33;;;12.67;;
17570;SDS011;8903;52.220;20.978;2023-07-30T06:08:06;13.63;;;11.83;;
17570;SDS011;8903;52.220;20.978;2023-07-30T06:10:34;15.47;;;13.63;;
17570;SDS011;8903;52.220;20.978;2023-07-30T06:13:03;12.53;;;11.20;;
17570;SDS011;8903;52.220;20.978;2023-07-30T06:15:30;15.37;;;12.07;;
17570;SDS011;8903;52.220;20.978;2023-07-30T06:17:57;13.67;;;11.40;;
17570;SDS011;8903;52.220;20.978;2023-07-30T06:20:25;13.43;;;9.30;;
17570;SDS011;8903;52.220;20.978;2023-07-30T06:22:52;9.07;;;8.17;;
17570;SDS011;8903;52.220;20.978;2023-07-30T06:25:18;11.73;;;8.50;;
17570;SDS011;8903;52.220;20.978;2023-07-30T06:27:45;10.47;;;8.87;;
17570;SDS011;8903;52.220;20.978;2023-07-30T06:30:14;12.90;;;9.50;;
17570;SDS011;8903;52.220;20.978;2023-07-30T06:32:41;10.00;;;8.90;;
17570;SDS011;8903;52.220;20.978;2023-07-30T06:35:08;9.60;;;8.70;;
17570;SDS011;8903;52.220;20.978;2023-07-30T06:37:35;10.50;;;9.40;;
17570;SDS011;8903;52.220;20.978;2023-07-30T06:40:02;10.07;;;9.13;;
17570;SDS011;8903;52.220;20.978;2023-07-30T06:42:31;10.47;;;9.57;;
17570;SDS011;8903;52.220;20.978;2023-07-30T06:44:59;13.00;;;10.30;;
17570;SDS011;8903;52.220;20.978;2023-07-30T06:47:27;12.70;;;10.47;;
17570;SDS011;8903;52.220;20.978;2023-07-30T06:49:54;13.13;;;11.53;;
17570;SDS011;8903;52.220;20.978;2023-07-30T06:52:21;14.20;;;12.00;;
17570;SDS011;8903;52.220;20.978;2023-07-30T06:54:48;17.93;;;11.90;;
17570;SDS011;8903;52.220;20.978;2023-07-30T06:57:15;14.23;;;11.17;;
17570;SDS011;8903;52.220;20.978;2023-07-30T06:59:42;11.53;;;9.87;;
17570;SDS011;8903;52.220;20.978;2023-07-30T07:02:09;13.77;;;12.47;;
17570;SDS011;8903;52.220;20.978;2023-07-30T07:04:37;14.90;;;13.40;;
17570;SDS011;8903;52.220;20.978;2023-07-30T07:07:04;16.90;;;15.17;;
17570;SDS011;8903;52.220;20.978;2023-07-30T07:09:31;15.07;;;13.77;;
17570;SDS011;8903;52.220;20.978;2023-07-30T07:11:58;14.27;;;12.40;;
17570;SDS011;8903;52.220;20.978;2023-07-30T07:14:26;16.40;;;12.97;;
17570;SDS011;8903;52.220;20.978;2023-07-30T07:16:53;15.03;;;13.70;;
17570;SDS011;8903;52.220;20.978;2023-07-30T07:19:21;14.57;;;13.20;;
17570;SDS011;8903;52.220;20.978;2023-07-30T07:21:49;12.90;;;11.80;;
17570;SDS011;8903;52.220;20.978;2023-07-30T07:24:16;11.67;;;10.47;;
17570;SDS011;8903;52.220;20.978;2023-07-30T07:26:43;13.10;;;11.90;;
17570;SDS011;8903;52.220;20.978;2023-07-30T07:29:10;11.10;;;8.57;;
17570;SDS011;8903;52.220;20.978;2023-07-30T07:31:37;11.50;;;10.37;;
17570;SDS011;8903;52.220;20.978;2023-07-30T07:34:04;10.30;;;9.40;;
17570;SDS011;8903;52.220;20.978;2023-07-30T07:36:31;8.03;;;7.23;;
17570;SDS011;8903;52.220;20.978;2023-07-30T07:39:00;15.47;;;8.03;;
17570;SDS011;8903;52.220;20.978;2023-07-30T07:41:27;8.00;;;7.20;;
17570;SDS011;8903;52.220;20.978;2023-07-30T07:43:54;8.27;;;7.57;;
17570;SDS011;8903;52.220;20.978;2023-07-30T07:46:21;8.17;;;7.30;;
17570;SDS011;8903;52.220;20.978;2023-07-30T07:48:48;8.17;;;7.40;;
17570;SDS011;8903;52.220;20.978;2023-07-30T07:51:15;9.47;;;7.70;;
17570;SDS011;8903;52.220;20.978;2023-07-30T07:53:42;7.70;;;6.93;;
17570;SDS011;8903;52.220;20.978;2023-07-30T07:56:10;7.80;;;6.37;;
17570;SDS011;8903;52.220;20.978;2023-07-30T07:58:37;8.40;;;5.77;;
17570;SDS011;8903;52.220;20.978;2023-07-30T08:01:04;6.20;;;5.60;;
17570;SDS011;8903;52.220;20.978;2023-07-30T08:03:31;7.33;;;6.63;;
17570;SDS011;8903;52.220;20.978;2023-07-30T08:05:58;8.53;;;6.23;;
17570;SDS011;8903;52.220;20.978;2023-07-30T08:08:25;10.00;;;5.57;;
17570;SDS011;8903;52.220;20.978;2023-07-30T08:10:53;8.17;;;6.13;;
17570;SDS011;8903;52.220;20.978;2023-07-30T08:13:22;9.60;;;7.10;;
17570;SDS011;8903;52.220;20.978;2023-07-30T08:15:49;8.20;;;7.07;;
17570;SDS011;8903;52.220;20.978;2023-07-30T08:18:16;8.57;;;7.67;;
17570;SDS011;8903;52.220;20.978;2023-07-30T08:20:43;8.50;;;6.80;;
17570;SDS011;8903;52.220;20.978;2023-07-30T08:23:10;6.60;;;6.00;;
17570;SDS011;8903;52.220;20.978;2023-07-30T08:25:37;9.50;;;5.30;;
17570;SDS011;8903;52.220;20.978;2023-07-30T08:28:04;5.43;;;4.93;;
17570;SDS011;8903;52.220;20.978;2023-07-30T08:30:32;6.20;;;5.60;;
17570;SDS011;8903;52.220;20.978;2023-07-30T08:32:59;6.17;;;5.67;;
17570;SDS011;8903;52.220;20.978;2023-07-30T08:35:26;6.10;;;5.67;;
17570;SDS011;8903;52.220;20.978;2023-07-30T08:37:53;5.77;;;5.33;;
17570;SDS011;8903;52.220;20.978;2023-07-30T08:40:20;6.33;;;5.73;;
17570;SDS011;8903;52.220;20.978;2023-07-30T08:42:48;6.57;;;5.97;;
17570;SDS011;8903;52.220;20.978;2023-07-30T08:45:16;5.20;;;4.80;;
17570;SDS011;8903;52.220;20.978;2023-07-30T08:47:44;5.83;;;5.33;;
17570;SDS011;8903;52.220;20.978;2023-07-30T08:50:12;5.10;;;4.60;;
17570;SDS011;8903;52.220;20.978;2023-07-30T08:52:40;5.30;;;4.90;;
17570;SDS011;8903;52.220;20.978;2023-07-30T08:55:09;5.47;;;5.07;;
17570;SDS011;8903;52.220;20.978;2023-07-30T08:57:37;8.00;;;5.17;;
17570;SDS011;8903;52.220;20.978;2023-07-30T09:00:05;7.50;;;5.70;;
17570;SDS011;8903;52.220;20.978;2023-07-30T09:02:34;4.90;;;4.50;;
17570;SDS011;8903;52.220;20.978;2023-07-30T09:05:07;6.17;;;5.57;;
17570;SDS011;8903;52.220;20.978;2023-07-30T09:07:35;5.20;;;4.70;;
17570;SDS011;8903;52.220;20.978;2023-07-30T09:10:02;5.30;;;4.50;;
17570;SDS011;8903;52.220;20.978;2023-07-30T09:12:29;4.40;;;4.10;;
17570;SDS011;8903;52.220;20.978;2023-07-30T09:14:57;4.87;;;4.37;;
17570;SDS011;8903;52.220;20.978;2023-07-30T09:17:25;10.13;;;4.63;;
17570;SDS011;8903;52.220;20.978;2023-07-30T09:19:52;4.53;;;4.03;;
17570;SDS011;8903;52.220;20.978;2023-07-30T09:22:22;4.17;;;3.87;;
17570;SDS011;8903;52.220;20.978;2023-07-30T09:24:51;7.03;;;5.13;;
17570;SDS011;8903;52.220;20.978;2023-07-30T09:27:19;8.00;;;5.27;;
17570;SDS011;8903;52.220;20.978;2023-07-30T09:29:50;5.00;;;4.60;;
17570;SDS011;8903;52.220;20.978;2023-07-30T09:32:18;4.97;;;4.57;;
17570;SDS011;8903;52.220;20.978;2023-07-30T09:34:46;6.80;;;4.83;;
17570;SDS011;8903;52.220;20.978;2023-07-30T09:37:13;5.07;;;4.67;;
17570;SDS011;8903;52.220;20.978;2023-07-30T09:39:42;5.43;;;4.93;;
17570;SDS011;8903;52.220;20.978;2023-07-30T09:42:10;5.60;;;5.13;;
17570;SDS011;8903;52.220;20.978;2023-07-30T09:44:37;5.73;;;5.30;;
17570;SDS011;8903;52.220;20.978;2023-07-30T09:47:05;4.53;;;4.23;;
17570;SDS011;8903;52.220;20.978;2023-07-30T09:49:35;6.30;;;4.80;;
17570;SDS011;8903;52.220;20.978;2023-07-30T09:52:03;5.63;;;4.80;;
17570;SDS011;8903;52.220;20.978;2023-07-30T09:54:31;7.57;;;4.30;;
17570;SDS011;8903;52.220;20.978;2023-07-30T09:57:00;10.13;;;4.90;;
17570;SDS011;8903;52.220;20.978;2023-07-30T09:59:26;5.30;;;4.80;;
17570;SDS011;8903;52.220;20.978;2023-07-30T10:01:53;7.10;;;5.10;;
17570;SDS011;8903;52.220;20.978;2023-07-30T10:04:23;7.77;;;4.90;;
17570;SDS011;8903;52.220;20.978;2023-07-30T10:06:51;5.10;;;4.70;;
17570;SDS011;8903;52.220;20.978;2023-07-30T10:09:25;4.80;;;4.37;;
17570;SDS011;8903;52.220;20.978;2023-07-30T10:11:56;6.40;;;5.07;;
17570;SDS011;8903;52.220;20.978;2023-07-30T10:14:26;5.00;;;4.60;;
17570;SDS011;8903;52.220;20.978;2023-07-30T10:16:54;5.37;;;4.83;;
17570;SDS011;8903;52.220;20.978;2023-07-30T10:19:22;5.23;;;4.83;;
17570;SDS011;8903;52.220;20.978;2023-07-30T10:21:50;4.40;;;4.10;;
17570;SDS011;8903;52.220;20.978;2023-07-30T10:24:17;4.77;;;4.33;;
17570;SDS011;8903;52.220;20.978;2023-07-30T10:26:44;4.87;;;4.50;;
17570;SDS011;8903;52.220;20.978;2023-07-30T10:29:12;5.50;;;4.63;;
17570;SDS011;8903;52.220;20.978;2023-07-30T10:31:42;4.80;;;4.10;;
17570;SDS011;8903;52.220;20.978;2023-07-30T10:34:10;4.87;;;4.47;;
17570;SDS011;8903;52.220;20.978;2023-07-30T10:36:41;4.57;;;4.23;;
17570;SDS011;8903;52.220;20.978;2023-07-30T10:39:13;5.27;;;4.87;;
17570;SDS011;8903;52.220;20.978;2023-07-30T10:41:45;5.07;;;4.70;;
17570;SDS011;8903;52.220;20.978;2023-07-30T10:44:18;4.93;;;4.53;;
17570;SDS011;8903;52.220;20.978;2023-07-30T10:46:50;5.70;;;5.20;;
17570;SDS011;8903;52.220;20.978;2023-07-30T10:49:17;5.40;;;5.00;;
17570;SDS011;8903;52.220;20.978;2023-07-30T10:51:44;5.60;;;5.20;;
17570;SDS011;8903;52.220;20.978;2023-07-30T10:54:11;5.90;;;4.20;;
17570;SDS011;8903;52.220;20.978;2023-07-30T10:56:41;5.40;;;4.90;;
17570;SDS011;8903;52.220;20.978;2023-07-30T10:59:08;5.20;;;4.80;;
17570;SDS011;8903;52.220;20.978;2023-07-30T11:01:39;5.97;;;4.60;;
17570;SDS011;8903;52.220;20.978;2023-07-30T11:04:08;5.40;;;5.00;;
17570;SDS011;8903;52.220;20.978;2023-07-30T11:06:36;6.50;;;5.20;;
17570;SDS011;8903;52.220;20.978;2023-07-30T11:09:04;5.20;;;4.70;;
17570;SDS011;8903;52.220;20.978;2023-07-30T11:11:31;5.80;;;5.40;;
17570;SDS011;8903;52.220;20.978;2023-07-30T11:13:58;5.30;;;4.40;;
17570;SDS011;8903;52.220;20.978;2023-07-30T11:16:25;4.90;;;4.50;;
17570;SDS011;8903;52.220;20.978;2023-07-30T11:18:52;4.70;;;4.40;;
17570;SDS011;8903;52.220;20.978;2023-07-30T11:21:21;8.20;;;5.37;;
17570;SDS011;8903;52.220;20.978;2023-07-30T11:23:50;5.30;;;4.70;;
17570;SDS011;8903;52.220;20.978;2023-07-30T11:26:18;6.20;;;4.87;;
17570;SDS011;8903;52.220;20.978;2023-07-30T11:28:46;4.60;;;4.30;;
17570;SDS011;8903;52.220;20.978;2023-07-30T11:31:14;5.90;;;5.40;;
17570;SDS011;8903;52.220;20.978;2023-07-30T11:33:44;6.73;;;5.40;;
17570;SDS011;8903;52.220;20.978;2023-07-30T11:36:13;4.30;;;3.97;;
17570;SDS011;8903;52.220;20.978;2023-07-30T11:38:43;7.20;;;4.13;;
17570;SDS011;8903;52.220;20.978;2023-07-30T11:41:11;5.23;;;4.73;;
17570;SDS011;8903;52.220;20.978;2023-07-30T11:43:40;5.20;;;4.63;;
17570;SDS011;8903;52.220;20.978;2023-07-30T22:49:43;7.10;;;5.30;;
17570;SDS011;8903;52.220;20.978;2023-07-30T22:52:10;5.80;;;3.90;;
17570;SDS011;8903;52.220;20.978;2023-07-30T22:54:38;4.17;;;3.60;;
17570;SDS011;8903;52.220;20.978;2023-07-30T22:57:05;4.30;;;3.90;;
17570;SDS011;8903;52.220;20.978;2023-07-30T22:59:33;3.67;;;3.30;;
17570;SDS011;8903;52.220;20.978;2023-07-30T23:02:00;4.33;;;4.00;;
17570;SDS011;8903;52.220;20.978;2023-07-30T23:04:27;3.90;;;3.47;;
17570;SDS011;8903;52.220;20.978;2023-07-30T23:06:56;3.77;;;3.47;;
17570;SDS011;8903;52.220;20.978;2023-07-30T23:09:23;5.27;;;3.23;;
17570;SDS011;8903;52.220;20.978;2023-07-30T23:11:50;2.90;;;2.70;;
17570;SDS011;8903;52.220;20.978;2023-07-30T23:14:18;4.93;;;4.43;;
17570;SDS011;8903;52.220;20.978;2023-07-30T23:16:46;6.23;;;3.80;;
17570;SDS011;8903;52.220;20.978;2023-07-30T23:19:13;2.93;;;2.73;;
17570;SDS011;8903;52.220;20.978;2023-07-30T23:21:40;2.80;;;2.60;;
17570;SDS011;8903;52.220;20.978;2023-07-30T23:24:08;2.37;;;2.17;;
17570;SDS011;8903;52.220;20.978;2023-07-30T23:26:35;2.83;;;2.63;;
17570;SDS011;8903;52.220;20.978;2023-07-30T23:29:03;3.57;;;2.87;;
17570;SDS011;8903;52.220;20.978;2023-07-30T23:31:30;4.40;;;2.37;;
17570;SDS011;8903;52.220;20.978;2023-07-30T23:33:57;3.50;;;2.80;;
17570;SDS011;8903;52.220;20.978;2023-07-30T23:36:24;2.57;;;2.37;;
17570;SDS011;8903;52.220;20.978;2023-07-30T23:38:51;4.33;;;2.50;;
17570;SDS011;8903;52.220;20.978;2023-07-30T23:41:20;2.43;;;2.33;;
17570;SDS011;8903;52.220;20.978;2023-07-30T23:43:46;3.23;;;2.93;;
17570;SDS011;8903;52.220;20.978;2023-07-30T23:46:13;2.80;;;2.60;;
17570;SDS011;8903;52.220;20.978;2023-07-30T23:48:40;5.47;;;2.80;;
17570;SDS011;8903;52.220;20.978;2023-07-30T23:51:07;2.03;;;1.93;;
17570;SDS011;8903;52.220;20.978;2023-07-30T23:53:34;2.63;;;2.43;;
17570;SDS011;8903;52.220;20.978;2023-07-30T23:56:01;3.03;;;2.30;;
17570;SDS011;8903;52.220;20.978;2023-07-30T23:58:30;1.93;;;1.83;;
